AFR92RF LFPG-LICJ
Flight info
| Callsign | AFR92RF |
|---|---|
| Flight time | 2h 6m |
| Altitude | 37000 |
| Route | LANVI DCT DEVDI DCT ODINA DCT KALMO DCT ELB DCT VELAD DCT TINTO DCT POKAV DCT BETOT DCT RUVIP DCT RONAB DCT GIANO |
| Aircraft | A320/M-SDE2E3FGIJ1RWY/HB1 |
Departure
| Time | 2026-05-09 08:43 |
|---|---|
| Airport | Charles de Gaulle International Airport (LFPG) |
Arrival
| Time | 2026-05-09 10:50 |
|---|---|
| Airport | Falcone–Borsellino Airport (LICJ) |
| Time | Latitude | Longitude | Altitude | Speed | Heading |
|---|---|---|---|---|---|
| 2026-05-09 08:41 | 48.99859 | 2.57134 | 361 ft | 27 kts | 265° |
| 2026-05-09 08:41 | 48.99844 | 2.56846 | 358 ft | 28 kts | 265° |
| 2026-05-09 08:41 | 48.99827 | 2.56550 | 356 ft | 29 kts | 266° |
| 2026-05-09 08:41 | 48.99811 | 2.56243 | 360 ft | 30 kts | 264° |
| 2026-05-09 08:42 | 48.99765 | 2.56033 | 356 ft | 18 kts | 195° |
| 2026-05-09 08:42 | 48.99647 | 2.56048 | 354 ft | 19 kts | 157° |
| 2026-05-09 08:42 | 48.99627 | 2.56337 | 363 ft | 46 kts | 85° |
| 2026-05-09 08:42 | 48.99672 | 2.57176 | 357 ft | 110 kts | 85° |
| 2026-05-09 08:43 | 48.99748 | 2.58598 | 354 ft | 157 kts | 85° |
| 2026-05-09 08:43 | 48.99839 | 2.60317 | 858 ft | 161 kts | 84° |
| 2026-05-09 08:43 | 48.99925 | 2.62021 | 1563 ft | 162 kts | 86° |
| 2026-05-09 08:43 | 49.00013 | 2.63733 | 2214 ft | 163 kts | 87° |
| 2026-05-09 08:44 | 49.00106 | 2.65462 | 2914 ft | 163 kts | 87° |
| 2026-05-09 08:44 | 49.00196 | 2.67169 | 3611 ft | 160 kts | 87° |
| 2026-05-09 08:44 | 49.00283 | 2.68951 | 3980 ft | 178 kts | 89° |
| 2026-05-09 08:44 | 49.00375 | 2.70932 | 4310 ft | 195 kts | 88° |
| 2026-05-09 08:45 | 49.00486 | 2.73115 | 4557 ft | 220 kts | 88° |
| 2026-05-09 08:45 | 49.00615 | 2.75559 | 4929 ft | 244 kts | 87° |
| 2026-05-09 08:45 | 49.00686 | 2.78250 | 5365 ft | 263 kts | 98° |
| 2026-05-09 08:45 | 49.00407 | 2.81035 | 6115 ft | 269 kts | 101° |
| 2026-05-09 08:46 | 49.00108 | 2.83872 | 6910 ft | 274 kts | 101° |
| 2026-05-09 08:46 | 48.99801 | 2.86764 | 7647 ft | 279 kts | 101° |
| 2026-05-09 08:46 | 48.99489 | 2.89712 | 8433 ft | 284 kts | 102° |
| 2026-05-09 08:46 | 48.99170 | 2.92712 | 9215 ft | 290 kts | 101° |
| 2026-05-09 08:47 | 48.98847 | 2.95763 | 9972 ft | 294 kts | 101° |
| 2026-05-09 08:47 | 48.98547 | 2.98902 | 10476 ft | 309 kts | 99° |
| 2026-05-09 08:47 | 48.98260 | 3.02275 | 10707 ft | 333 kts | 99° |
| 2026-05-09 08:47 | 48.97974 | 3.05833 | 11213 ft | 343 kts | 98° |
| 2026-05-09 08:48 | 48.97686 | 3.09471 | 11892 ft | 348 kts | 98° |
| 2026-05-09 08:48 | 48.97392 | 3.13148 | 12588 ft | 352 kts | 98° |
| 2026-05-09 08:48 | 48.97089 | 3.16869 | 13295 ft | 356 kts | 99° |
| 2026-05-09 08:48 | 48.96776 | 3.20626 | 13977 ft | 359 kts | 99° |
| 2026-05-09 08:49 | 48.96455 | 3.24415 | 14600 ft | 362 kts | 99° |
| 2026-05-09 08:49 | 48.96129 | 3.28237 | 15220 ft | 365 kts | 99° |
| 2026-05-09 08:49 | 48.95797 | 3.32079 | 15852 ft | 368 kts | 99° |
| 2026-05-09 08:49 | 48.95460 | 3.35957 | 16484 ft | 371 kts | 99° |
| 2026-05-09 08:50 | 48.95120 | 3.39858 | 17098 ft | 373 kts | 99° |
| 2026-05-09 08:50 | 48.94778 | 3.43784 | 17715 ft | 376 kts | 99° |
| 2026-05-09 08:50 | 48.94431 | 3.47747 | 18320 ft | 379 kts | 99° |
| 2026-05-09 08:50 | 48.94083 | 3.51728 | 18838 ft | 382 kts | 99° |
| 2026-05-09 08:51 | 48.93741 | 3.55699 | 19334 ft | 385 kts | 99° |
| 2026-05-09 08:51 | 48.93456 | 3.59810 | 19851 ft | 388 kts | 97° |
| 2026-05-09 08:51 | 48.93236 | 3.63914 | 20359 ft | 390 kts | 96° |
| 2026-05-09 08:51 | 48.93046 | 3.68045 | 20863 ft | 393 kts | 96° |
| 2026-05-09 08:52 | 48.92862 | 3.72150 | 21349 ft | 395 kts | 96° |
| 2026-05-09 08:52 | 48.92665 | 3.76331 | 21836 ft | 398 kts | 96° |
| 2026-05-09 08:52 | 48.92454 | 3.80536 | 22327 ft | 400 kts | 96° |
| 2026-05-09 08:52 | 48.92233 | 3.84757 | 22796 ft | 402 kts | 96° |
| 2026-05-09 08:53 | 48.92001 | 3.89013 | 23260 ft | 405 kts | 97° |
| 2026-05-09 08:53 | 48.91766 | 3.93287 | 23700 ft | 407 kts | 97° |
| 2026-05-09 08:53 | 48.91524 | 3.97589 | 24071 ft | 409 kts | 97° |
| 2026-05-09 08:53 | 48.91280 | 4.01906 | 24465 ft | 411 kts | 97° |
| 2026-05-09 08:54 | 48.91031 | 4.06241 | 24854 ft | 413 kts | 97° |
| 2026-05-09 08:54 | 48.90776 | 4.10591 | 25237 ft | 414 kts | 97° |
| 2026-05-09 08:54 | 48.90527 | 4.14964 | 25618 ft | 416 kts | 97° |
| 2026-05-09 08:54 | 48.90219 | 4.19335 | 25997 ft | 416 kts | 102° |
| 2026-05-09 08:55 | 48.89496 | 4.23586 | 26348 ft | 415 kts | 111° |
| 2026-05-09 08:55 | 48.88322 | 4.27583 | 26709 ft | 415 kts | 120° |
| 2026-05-09 08:55 | 48.86920 | 4.31413 | 27073 ft | 416 kts | 121° |
| 2026-05-09 08:55 | 48.85510 | 4.35260 | 27419 ft | 418 kts | 121° |
| 2026-05-09 08:56 | 48.84091 | 4.39128 | 27724 ft | 421 kts | 120° |
| 2026-05-09 08:56 | 48.82662 | 4.43012 | 28026 ft | 423 kts | 120° |
| 2026-05-09 08:56 | 48.81222 | 4.46922 | 28362 ft | 425 kts | 120° |
| 2026-05-09 08:56 | 48.79776 | 4.50851 | 28707 ft | 427 kts | 120° |
| 2026-05-09 08:57 | 48.78326 | 4.54790 | 29040 ft | 429 kts | 120° |
| 2026-05-09 08:57 | 48.76870 | 4.58743 | 29367 ft | 430 kts | 120° |
| 2026-05-09 08:57 | 48.75408 | 4.62712 | 29703 ft | 432 kts | 120° |
| 2026-05-09 08:57 | 48.73939 | 4.66686 | 30003 ft | 433 kts | 120° |
| 2026-05-09 08:58 | 48.72461 | 4.70671 | 30261 ft | 435 kts | 120° |
| 2026-05-09 08:58 | 48.70976 | 4.74667 | 30506 ft | 436 kts | 120° |
| 2026-05-09 08:58 | 48.69484 | 4.78675 | 30736 ft | 438 kts | 121° |
| 2026-05-09 08:58 | 48.67984 | 4.82703 | 30918 ft | 441 kts | 120° |
| 2026-05-09 08:59 | 48.66475 | 4.86751 | 31148 ft | 442 kts | 120° |
| 2026-05-09 08:59 | 48.64961 | 4.90801 | 31484 ft | 441 kts | 120° |
| 2026-05-09 08:59 | 48.63457 | 4.94832 | 31810 ft | 441 kts | 120° |
| 2026-05-09 08:59 | 48.61951 | 4.98864 | 32109 ft | 440 kts | 120° |
| 2026-05-09 09:00 | 48.60441 | 5.02896 | 32401 ft | 440 kts | 120° |
| 2026-05-09 09:00 | 48.58932 | 5.06913 | 32731 ft | 439 kts | 121° |
| 2026-05-09 09:00 | 48.57423 | 5.10921 | 33074 ft | 438 kts | 121° |
| 2026-05-09 09:00 | 48.55937 | 5.14866 | 33378 ft | 438 kts | 121° |
| 2026-05-09 09:01 | 48.54409 | 5.18913 | 33679 ft | 438 kts | 120° |
| 2026-05-09 09:01 | 48.52897 | 5.22915 | 33897 ft | 440 kts | 120° |
| 2026-05-09 09:01 | 48.51380 | 5.26919 | 34171 ft | 440 kts | 121° |
| 2026-05-09 09:01 | 48.49859 | 5.30927 | 34431 ft | 440 kts | 121° |
| 2026-05-09 09:02 | 48.48334 | 5.34934 | 34633 ft | 441 kts | 121° |
| 2026-05-09 09:02 | 48.46804 | 5.38947 | 34835 ft | 442 kts | 121° |
| 2026-05-09 09:02 | 48.45270 | 5.42963 | 35040 ft | 443 kts | 121° |
| 2026-05-09 09:02 | 48.43731 | 5.46994 | 35242 ft | 444 kts | 121° |
| 2026-05-09 09:03 | 48.42215 | 5.50969 | 35437 ft | 444 kts | 121° |
| 2026-05-09 09:03 | 48.40677 | 5.55004 | 35637 ft | 445 kts | 121° |
| 2026-05-09 09:03 | 48.39134 | 5.59043 | 35826 ft | 445 kts | 121° |
| 2026-05-09 09:03 | 48.37590 | 5.63079 | 35994 ft | 446 kts | 121° |
| 2026-05-09 09:04 | 48.36034 | 5.67123 | 36172 ft | 447 kts | 121° |
| 2026-05-09 09:04 | 48.34472 | 5.71168 | 36352 ft | 448 kts | 122° |
| 2026-05-09 09:04 | 48.32904 | 5.75215 | 36546 ft | 448 kts | 122° |
| 2026-05-09 09:04 | 48.31340 | 5.79259 | 36717 ft | 448 kts | 121° |
| 2026-05-09 09:05 | 48.29845 | 5.83370 | 36898 ft | 449 kts | 118° |
| 2026-05-09 09:05 | 48.28459 | 5.87579 | 37044 ft | 450 kts | 117° |
| 2026-05-09 09:05 | 48.27143 | 5.91855 | 37091 ft | 451 kts | 116° |
| 2026-05-09 09:06 | 48.24568 | 6.00437 | 37079 ft | 451 kts | 116° |
| 2026-05-09 09:06 | 48.21904 | 6.09000 | 37085 ft | 454 kts | 117° |
| 2026-05-09 09:07 | 48.19157 | 6.17515 | 37087 ft | 454 kts | 117° |
| 2026-05-09 09:07 | 48.16397 | 6.26020 | 37089 ft | 454 kts | 117° |
| 2026-05-09 09:08 | 48.13649 | 6.34540 | 37088 ft | 454 kts | 117° |
| 2026-05-09 09:08 | 48.10901 | 6.43048 | 37087 ft | 454 kts | 117° |
| 2026-05-09 09:09 | 48.08141 | 6.51566 | 37080 ft | 455 kts | 117° |
| 2026-05-09 09:09 | 48.05836 | 6.58650 | 37081 ft | 456 kts | 117° |
| 2026-05-09 09:10 | 48.03045 | 6.67174 | 37080 ft | 457 kts | 117° |
| 2026-05-09 09:10 | 47.99792 | 6.77089 | 37092 ft | 457 kts | 118° |
| 2026-05-09 09:11 | 47.97444 | 6.84230 | 37091 ft | 458 kts | 117° |
| 2026-05-09 09:11 | 47.94630 | 6.92757 | 37089 ft | 459 kts | 118° |
| 2026-05-09 09:12 | 47.91806 | 7.01297 | 37092 ft | 459 kts | 118° |
| 2026-05-09 09:12 | 47.88990 | 7.09769 | 37097 ft | 459 kts | 118° |
| 2026-05-09 09:13 | 47.86147 | 7.18296 | 37101 ft | 460 kts | 118° |
| 2026-05-09 09:13 | 47.83299 | 7.26827 | 37092 ft | 460 kts | 118° |
| 2026-05-09 09:14 | 47.80438 | 7.35361 | 37086 ft | 462 kts | 118° |
| 2026-05-09 09:14 | 47.77564 | 7.43904 | 37090 ft | 462 kts | 118° |
| 2026-05-09 09:15 | 47.74157 | 7.51930 | 37094 ft | 458 kts | 134° |
| 2026-05-09 09:15 | 47.69314 | 7.57882 | 37098 ft | 450 kts | 154° |
| 2026-05-09 09:16 | 47.63702 | 7.61940 | 37090 ft | 449 kts | 158° |
| 2026-05-09 09:16 | 47.55220 | 7.67905 | 37090 ft | 451 kts | 158° |
| 2026-05-09 09:17 | 47.49559 | 7.71892 | 37087 ft | 451 kts | 158° |
| 2026-05-09 09:17 | 47.43896 | 7.75859 | 37097 ft | 451 kts | 158° |
| 2026-05-09 09:18 | 47.38225 | 7.79808 | 37107 ft | 451 kts | 158° |
| 2026-05-09 09:18 | 47.32552 | 7.83746 | 37106 ft | 450 kts | 158° |
| 2026-05-09 09:19 | 47.26883 | 7.87677 | 37110 ft | 450 kts | 158° |
| 2026-05-09 09:19 | 47.21217 | 7.91595 | 37114 ft | 450 kts | 158° |
| 2026-05-09 09:20 | 47.15558 | 7.95519 | 37118 ft | 450 kts | 158° |
| 2026-05-09 09:20 | 47.09891 | 7.99428 | 37125 ft | 450 kts | 159° |
| 2026-05-09 09:21 | 47.04223 | 8.03314 | 37134 ft | 450 kts | 159° |
| 2026-05-09 09:21 | 46.98559 | 8.07200 | 37120 ft | 450 kts | 159° |
| 2026-05-09 09:22 | 46.92889 | 8.11075 | 37119 ft | 450 kts | 159° |
| 2026-05-09 09:22 | 46.87214 | 8.14947 | 37102 ft | 450 kts | 160° |
| 2026-05-09 09:23 | 46.81537 | 8.18819 | 37103 ft | 451 kts | 160° |
| 2026-05-09 09:23 | 46.75848 | 8.22691 | 37099 ft | 452 kts | 160° |
| 2026-05-09 09:24 | 46.70144 | 8.26566 | 37105 ft | 452 kts | 160° |
| 2026-05-09 09:24 | 46.64431 | 8.30419 | 37097 ft | 453 kts | 160° |
| 2026-05-09 09:25 | 46.58712 | 8.34271 | 37112 ft | 454 kts | 160° |
| 2026-05-09 09:25 | 46.53020 | 8.38106 | 37123 ft | 454 kts | 160° |
| 2026-05-09 09:26 | 46.47254 | 8.41975 | 37135 ft | 454 kts | 161° |
| 2026-05-09 09:26 | 46.41516 | 8.45821 | 37153 ft | 455 kts | 160° |
| 2026-05-09 09:27 | 46.35769 | 8.49670 | 37141 ft | 455 kts | 161° |
| 2026-05-09 09:27 | 46.30061 | 8.53476 | 37130 ft | 455 kts | 161° |
| 2026-05-09 09:28 | 46.24304 | 8.57301 | 37103 ft | 455 kts | 161° |
| 2026-05-09 09:28 | 46.18544 | 8.61117 | 37106 ft | 456 kts | 162° |
| 2026-05-09 09:29 | 46.12774 | 8.64932 | 37105 ft | 457 kts | 162° |
| 2026-05-09 09:29 | 46.06956 | 8.68578 | 37110 ft | 454 kts | 165° |
| 2026-05-09 09:30 | 46.01052 | 8.71719 | 37099 ft | 451 kts | 168° |
| 2026-05-09 09:30 | 45.95126 | 8.74726 | 37092 ft | 452 kts | 167° |
| 2026-05-09 09:31 | 45.89206 | 8.77834 | 37096 ft | 454 kts | 167° |
| 2026-05-09 09:32 | 45.80315 | 8.82619 | 37084 ft | 455 kts | 167° |
| 2026-05-09 09:32 | 45.74384 | 8.85801 | 37109 ft | 455 kts | 167° |
| 2026-05-09 09:33 | 45.68448 | 8.88951 | 37142 ft | 455 kts | 168° |
| 2026-05-09 09:33 | 45.62518 | 8.92084 | 37146 ft | 454 kts | 168° |
| 2026-05-09 09:34 | 45.56595 | 8.95223 | 37133 ft | 454 kts | 168° |
| 2026-05-09 09:34 | 45.50675 | 8.98346 | 37109 ft | 454 kts | 168° |
| 2026-05-09 09:36 | 45.26956 | 9.10784 | 37099 ft | 455 kts | 168° |
| 2026-05-09 09:37 | 45.21007 | 9.13890 | 37077 ft | 456 kts | 168° |
| 2026-05-09 09:37 | 45.15053 | 9.16986 | 37087 ft | 456 kts | 168° |
| 2026-05-09 09:38 | 45.09094 | 9.20071 | 37097 ft | 456 kts | 168° |
| 2026-05-09 09:38 | 45.03140 | 9.23151 | 37092 ft | 456 kts | 168° |
| 2026-05-09 09:39 | 44.97178 | 9.26238 | 37071 ft | 457 kts | 168° |
| 2026-05-09 09:39 | 44.91210 | 9.29317 | 37080 ft | 457 kts | 168° |
| 2026-05-09 09:40 | 44.85242 | 9.32384 | 37085 ft | 457 kts | 168° |
| 2026-05-09 09:40 | 44.79273 | 9.35456 | 37075 ft | 457 kts | 169° |
| 2026-05-09 09:41 | 44.73302 | 9.38519 | 37090 ft | 457 kts | 169° |
| 2026-05-09 09:41 | 44.67324 | 9.41570 | 37096 ft | 457 kts | 169° |
| 2026-05-09 09:42 | 44.61349 | 9.44612 | 37099 ft | 457 kts | 169° |
| 2026-05-09 09:42 | 44.55368 | 9.47647 | 37078 ft | 457 kts | 169° |
| 2026-05-09 09:43 | 44.49390 | 9.50686 | 37086 ft | 457 kts | 169° |
| 2026-05-09 09:43 | 44.43422 | 9.53722 | 37088 ft | 456 kts | 169° |
| 2026-05-09 09:44 | 44.37445 | 9.56749 | 37084 ft | 456 kts | 169° |
| 2026-05-09 09:44 | 44.31468 | 9.59755 | 37085 ft | 457 kts | 169° |
| 2026-05-09 09:45 | 44.25493 | 9.62822 | 37091 ft | 458 kts | 168° |
| 2026-05-09 09:45 | 44.19513 | 9.65942 | 37080 ft | 459 kts | 168° |
| 2026-05-09 09:46 | 44.13536 | 9.69040 | 37090 ft | 458 kts | 168° |
| 2026-05-09 09:46 | 44.07560 | 9.72111 | 37096 ft | 458 kts | 168° |
| 2026-05-09 09:47 | 44.01625 | 9.75156 | 37100 ft | 458 kts | 168° |
| 2026-05-09 09:47 | 43.95655 | 9.78218 | 37098 ft | 457 kts | 169° |
| 2026-05-09 09:48 | 43.89696 | 9.81265 | 37110 ft | 456 kts | 169° |
| 2026-05-09 09:48 | 43.83740 | 9.84293 | 37100 ft | 456 kts | 169° |
| 2026-05-09 09:49 | 43.77775 | 9.87318 | 37081 ft | 457 kts | 169° |
| 2026-05-09 09:49 | 43.71810 | 9.90347 | 37092 ft | 457 kts | 169° |
| 2026-05-09 09:50 | 43.65841 | 9.93371 | 37095 ft | 457 kts | 169° |
| 2026-05-09 09:50 | 43.59872 | 9.96396 | 37100 ft | 457 kts | 169° |
| 2026-05-09 09:51 | 43.53903 | 9.99410 | 37098 ft | 456 kts | 169° |
| 2026-05-09 09:51 | 43.47942 | 10.02416 | 37106 ft | 456 kts | 169° |
| 2026-05-09 09:52 | 43.41981 | 10.05412 | 37103 ft | 456 kts | 169° |
| 2026-05-09 09:52 | 43.36026 | 10.08390 | 37098 ft | 455 kts | 169° |
| 2026-05-09 09:53 | 43.30072 | 10.11355 | 37107 ft | 455 kts | 169° |
| 2026-05-09 09:53 | 43.24124 | 10.14328 | 37111 ft | 455 kts | 169° |
| 2026-05-09 09:54 | 43.18177 | 10.17288 | 37114 ft | 454 kts | 169° |
| 2026-05-09 09:54 | 43.12276 | 10.20223 | 37104 ft | 454 kts | 169° |
| 2026-05-09 09:55 | 43.06335 | 10.23169 | 37088 ft | 455 kts | 169° |
| 2026-05-09 09:55 | 43.00378 | 10.26110 | 37097 ft | 455 kts | 169° |
| 2026-05-09 09:56 | 42.94413 | 10.29058 | 37098 ft | 456 kts | 169° |
| 2026-05-09 09:56 | 42.89418 | 10.31525 | 37102 ft | 456 kts | 169° |
| 2026-05-09 09:57 | 42.83492 | 10.34445 | 37113 ft | 456 kts | 169° |
| 2026-05-09 09:57 | 42.77531 | 10.37379 | 37119 ft | 456 kts | 169° |
| 2026-05-09 09:58 | 42.71567 | 10.40315 | 37104 ft | 456 kts | 168° |
| 2026-05-09 09:58 | 42.65653 | 10.43487 | 37123 ft | 458 kts | 167° |
| 2026-05-09 09:59 | 42.59771 | 10.46803 | 37136 ft | 458 kts | 166° |
| 2026-05-09 09:59 | 42.53886 | 10.50073 | 37127 ft | 456 kts | 167° |
| 2026-05-09 10:00 | 42.47995 | 10.53263 | 37109 ft | 456 kts | 167° |
| 2026-05-09 10:00 | 42.42102 | 10.56448 | 37121 ft | 456 kts | 167° |
| 2026-05-09 10:01 | 42.36213 | 10.59638 | 37107 ft | 456 kts | 167° |
| 2026-05-09 10:01 | 42.30310 | 10.62825 | 37107 ft | 457 kts | 167° |
| 2026-05-09 10:02 | 42.24397 | 10.66020 | 37116 ft | 458 kts | 167° |
| 2026-05-09 10:02 | 42.18521 | 10.69190 | 37114 ft | 458 kts | 167° |
| 2026-05-09 10:03 | 42.12603 | 10.72374 | 37116 ft | 458 kts | 167° |
| 2026-05-09 10:03 | 42.06680 | 10.75548 | 37095 ft | 458 kts | 167° |
| 2026-05-09 10:04 | 42.00762 | 10.78717 | 37103 ft | 458 kts | 167° |
| 2026-05-09 10:04 | 41.94839 | 10.81874 | 37112 ft | 458 kts | 167° |
| 2026-05-09 10:05 | 41.88913 | 10.85025 | 37099 ft | 458 kts | 167° |
| 2026-05-09 10:05 | 41.82996 | 10.88172 | 37111 ft | 457 kts | 167° |
| 2026-05-09 10:06 | 41.77081 | 10.91319 | 37116 ft | 457 kts | 167° |
| 2026-05-09 10:06 | 41.71170 | 10.94453 | 37120 ft | 457 kts | 167° |
| 2026-05-09 10:07 | 41.65260 | 10.97582 | 37098 ft | 456 kts | 167° |
| 2026-05-09 10:07 | 41.59360 | 11.00697 | 37112 ft | 456 kts | 167° |
| 2026-05-09 10:08 | 41.53501 | 11.03784 | 37118 ft | 455 kts | 167° |
| 2026-05-09 10:08 | 41.47604 | 11.06875 | 37119 ft | 455 kts | 167° |
| 2026-05-09 10:09 | 41.41715 | 11.09967 | 37120 ft | 455 kts | 167° |
| 2026-05-09 10:09 | 41.35828 | 11.13048 | 37125 ft | 454 kts | 167° |
| 2026-05-09 10:10 | 41.29941 | 11.16123 | 37126 ft | 454 kts | 167° |
| 2026-05-09 10:10 | 41.24065 | 11.19195 | 37125 ft | 454 kts | 167° |
| 2026-05-09 10:11 | 41.18194 | 11.22264 | 37108 ft | 453 kts | 167° |
| 2026-05-09 10:11 | 41.12692 | 11.25125 | 37111 ft | 453 kts | 167° |
| 2026-05-09 10:12 | 41.06831 | 11.28166 | 37112 ft | 452 kts | 167° |
| 2026-05-09 10:12 | 41.00966 | 11.31195 | 37097 ft | 452 kts | 167° |
| 2026-05-09 10:13 | 40.95095 | 11.34228 | 37083 ft | 453 kts | 167° |
| 2026-05-09 10:13 | 40.89219 | 11.37258 | 37095 ft | 454 kts | 167° |
| 2026-05-09 10:14 | 40.83334 | 11.40292 | 37102 ft | 454 kts | 167° |
| 2026-05-09 10:14 | 40.77447 | 11.43331 | 37077 ft | 454 kts | 167° |
| 2026-05-09 10:15 | 40.71562 | 11.46355 | 37097 ft | 454 kts | 167° |
| 2026-05-09 10:15 | 40.65714 | 11.49344 | 37107 ft | 454 kts | 167° |
| 2026-05-09 10:16 | 40.59832 | 11.52346 | 37114 ft | 453 kts | 167° |
| 2026-05-09 10:16 | 40.53949 | 11.55348 | 37099 ft | 453 kts | 167° |
| 2026-05-09 10:17 | 40.48066 | 11.58351 | 37101 ft | 453 kts | 167° |
| 2026-05-09 10:17 | 40.42187 | 11.61345 | 37109 ft | 453 kts | 167° |
| 2026-05-09 10:18 | 40.36302 | 11.64321 | 37112 ft | 453 kts | 167° |
| 2026-05-09 10:18 | 40.30415 | 11.67293 | 37092 ft | 453 kts | 167° |
| 2026-05-09 10:19 | 40.24561 | 11.70249 | 37083 ft | 454 kts | 167° |
| 2026-05-09 10:19 | 40.18615 | 11.73243 | 37088 ft | 455 kts | 167° |
| 2026-05-09 10:20 | 40.12742 | 11.76198 | 37091 ft | 456 kts | 167° |
| 2026-05-09 10:20 | 40.06820 | 11.79162 | 37100 ft | 456 kts | 167° |
| 2026-05-09 10:21 | 40.00896 | 11.82143 | 37105 ft | 456 kts | 167° |
| 2026-05-09 10:21 | 39.94968 | 11.85111 | 37109 ft | 456 kts | 167° |
| 2026-05-09 10:22 | 39.89038 | 11.88068 | 37107 ft | 456 kts | 167° |
| 2026-05-09 10:22 | 39.86072 | 11.89555 | 36838 ft | 457 kts | 166° |
| 2026-05-09 10:22 | 39.83123 | 11.91129 | 36578 ft | 458 kts | 165° |
| 2026-05-09 10:22 | 39.80196 | 11.92777 | 36331 ft | 459 kts | 164° |
| 2026-05-09 10:23 | 39.77280 | 11.94464 | 36051 ft | 459 kts | 163° |
| 2026-05-09 10:23 | 39.74350 | 11.96169 | 35288 ft | 463 kts | 164° |
| 2026-05-09 10:23 | 39.71426 | 11.97860 | 34807 ft | 458 kts | 164° |
| 2026-05-09 10:23 | 39.68516 | 11.99525 | 34252 ft | 456 kts | 164° |
| 2026-05-09 10:24 | 39.65620 | 12.01164 | 33659 ft | 453 kts | 165° |
| 2026-05-09 10:24 | 39.62743 | 12.02775 | 33119 ft | 448 kts | 165° |
| 2026-05-09 10:24 | 39.59892 | 12.04360 | 32592 ft | 444 kts | 164° |
| 2026-05-09 10:24 | 39.57098 | 12.05913 | 32082 ft | 441 kts | 164° |
| 2026-05-09 10:25 | 39.54248 | 12.07503 | 31548 ft | 438 kts | 164° |
| 2026-05-09 10:25 | 39.51496 | 12.09040 | 31044 ft | 436 kts | 163° |
| 2026-05-09 10:25 | 39.48723 | 12.10589 | 30531 ft | 433 kts | 163° |
| 2026-05-09 10:25 | 39.45959 | 12.12127 | 29994 ft | 431 kts | 163° |
| 2026-05-09 10:26 | 39.43219 | 12.13655 | 29485 ft | 427 kts | 163° |
| 2026-05-09 10:26 | 39.40508 | 12.15167 | 29006 ft | 422 kts | 163° |
| 2026-05-09 10:26 | 39.37823 | 12.16665 | 28518 ft | 417 kts | 163° |
| 2026-05-09 10:26 | 39.35173 | 12.18141 | 28063 ft | 413 kts | 163° |
| 2026-05-09 10:27 | 39.32552 | 12.19602 | 27615 ft | 408 kts | 163° |
| 2026-05-09 10:27 | 39.29953 | 12.21047 | 27173 ft | 404 kts | 163° |
| 2026-05-09 10:27 | 39.27382 | 12.22469 | 26740 ft | 400 kts | 163° |
| 2026-05-09 10:27 | 39.24830 | 12.23872 | 26302 ft | 397 kts | 163° |
| 2026-05-09 10:28 | 39.22304 | 12.25261 | 25872 ft | 393 kts | 163° |
| 2026-05-09 10:28 | 39.19796 | 12.26645 | 25420 ft | 391 kts | 163° |
| 2026-05-09 10:28 | 39.17299 | 12.28024 | 24969 ft | 389 kts | 163° |
| 2026-05-09 10:28 | 39.14818 | 12.29397 | 24493 ft | 388 kts | 163° |
| 2026-05-09 10:29 | 39.12341 | 12.30769 | 24037 ft | 386 kts | 163° |
| 2026-05-09 10:29 | 39.09877 | 12.32131 | 23536 ft | 386 kts | 163° |
| 2026-05-09 10:29 | 39.07411 | 12.33489 | 23031 ft | 384 kts | 163° |
| 2026-05-09 10:29 | 39.04966 | 12.34838 | 22561 ft | 381 kts | 162° |
| 2026-05-09 10:30 | 39.02533 | 12.36182 | 22090 ft | 379 kts | 162° |
| 2026-05-09 10:30 | 39.00116 | 12.37513 | 21630 ft | 377 kts | 162° |
| 2026-05-09 10:30 | 38.97711 | 12.38835 | 21172 ft | 375 kts | 162° |
| 2026-05-09 10:30 | 38.95315 | 12.40149 | 20712 ft | 374 kts | 162° |
| 2026-05-09 10:31 | 38.92926 | 12.41459 | 20255 ft | 372 kts | 161° |
| 2026-05-09 10:31 | 38.90550 | 12.42764 | 19789 ft | 371 kts | 161° |
| 2026-05-09 10:31 | 38.88183 | 12.44062 | 19351 ft | 370 kts | 161° |
| 2026-05-09 10:31 | 38.85839 | 12.45360 | 19110 ft | 362 kts | 160° |
| 2026-05-09 10:32 | 38.83568 | 12.46686 | 18967 ft | 356 kts | 159° |
| 2026-05-09 10:32 | 38.81313 | 12.48043 | 17888 ft | 363 kts | 159° |
| 2026-05-09 10:32 | 38.79001 | 12.49452 | 17217 ft | 369 kts | 158° |
| 2026-05-09 10:32 | 38.76688 | 12.50867 | 16701 ft | 368 kts | 158° |
| 2026-05-09 10:33 | 38.74372 | 12.52278 | 16175 ft | 369 kts | 158° |
| 2026-05-09 10:33 | 38.72066 | 12.53677 | 15719 ft | 367 kts | 158° |
| 2026-05-09 10:33 | 38.69758 | 12.55070 | 15325 ft | 364 kts | 158° |
| 2026-05-09 10:33 | 38.67475 | 12.56441 | 14903 ft | 362 kts | 158° |
| 2026-05-09 10:34 | 38.65198 | 12.57804 | 14474 ft | 360 kts | 159° |
| 2026-05-09 10:34 | 38.60704 | 12.60482 | 13622 ft | 357 kts | 159° |
| 2026-05-09 10:34 | 38.58456 | 12.61823 | 13182 ft | 356 kts | 159° |
| 2026-05-09 10:35 | 38.56221 | 12.63157 | 12732 ft | 354 kts | 159° |
| 2026-05-09 10:35 | 38.53998 | 12.64490 | 12293 ft | 352 kts | 158° |
| 2026-05-09 10:35 | 38.51788 | 12.65817 | 11850 ft | 350 kts | 159° |
| 2026-05-09 10:35 | 38.49588 | 12.67135 | 11414 ft | 349 kts | 159° |
| 2026-05-09 10:36 | 38.47419 | 12.68427 | 11251 ft | 338 kts | 159° |
| 2026-05-09 10:36 | 38.45319 | 12.69677 | 11127 ft | 327 kts | 159° |
| 2026-05-09 10:36 | 38.43282 | 12.70891 | 10961 ft | 319 kts | 159° |
| 2026-05-09 10:36 | 38.41304 | 12.72071 | 10820 ft | 309 kts | 159° |
| 2026-05-09 10:37 | 38.39413 | 12.73202 | 10687 ft | 300 kts | 159° |
| 2026-05-09 10:37 | 38.37518 | 12.74362 | 10425 ft | 298 kts | 154° |
| 2026-05-09 10:37 | 38.35989 | 12.76105 | 10132 ft | 303 kts | 125° |
| 2026-05-09 10:37 | 38.35215 | 12.78575 | 9803 ft | 302 kts | 95° |
| 2026-05-09 10:38 | 38.35391 | 12.81190 | 9445 ft | 295 kts | 67° |
| 2026-05-09 10:38 | 38.36174 | 12.83583 | 9062 ft | 292 kts | 62° |
| 2026-05-09 10:38 | 38.36984 | 12.85954 | 8709 ft | 291 kts | 62° |
| 2026-05-09 10:38 | 38.37790 | 12.88316 | 8376 ft | 289 kts | 63° |
| 2026-05-09 10:39 | 38.38591 | 12.90658 | 8043 ft | 287 kts | 63° |
| 2026-05-09 10:39 | 38.39369 | 12.93023 | 7403 ft | 297 kts | 70° |
| 2026-05-09 10:39 | 38.39364 | 12.95622 | 6921 ft | 288 kts | 110° |
| 2026-05-09 10:39 | 38.38318 | 12.97599 | 6639 ft | 257 kts | 149° |
| 2026-05-09 10:40 | 38.36763 | 12.98575 | 6626 ft | 249 kts | 162° |
| 2026-05-09 10:40 | 38.35156 | 12.99386 | 6428 ft | 247 kts | 163° |
| 2026-05-09 10:40 | 38.33538 | 13.00047 | 6257 ft | 240 kts | 180° |
| 2026-05-09 10:40 | 38.31942 | 12.99769 | 6164 ft | 229 kts | 208° |
| 2026-05-09 10:41 | 38.30639 | 12.98683 | 6059 ft | 222 kts | 231° |
| 2026-05-09 10:41 | 38.29855 | 12.97040 | 5939 ft | 217 kts | 251° |
| 2026-05-09 10:41 | 38.29287 | 12.95253 | 5834 ft | 218 kts | 249° |
| 2026-05-09 10:41 | 38.28677 | 12.93484 | 5675 ft | 219 kts | 248° |
| 2026-05-09 10:42 | 38.28065 | 12.91708 | 5536 ft | 219 kts | 249° |
| 2026-05-09 10:42 | 38.27470 | 12.89927 | 5471 ft | 219 kts | 249° |
| 2026-05-09 10:42 | 38.26876 | 12.88143 | 5383 ft | 220 kts | 249° |
| 2026-05-09 10:42 | 38.26270 | 12.86356 | 5272 ft | 220 kts | 249° |
| 2026-05-09 10:43 | 38.25651 | 12.84577 | 5145 ft | 220 kts | 244° |
| 2026-05-09 10:43 | 38.24624 | 12.83182 | 5008 ft | 225 kts | 209° |
| 2026-05-09 10:43 | 38.23058 | 12.82824 | 4720 ft | 235 kts | 172° |
| 2026-05-09 10:43 | 38.21494 | 12.83522 | 4335 ft | 240 kts | 158° |
| 2026-05-09 10:44 | 38.19939 | 12.84365 | 3810 ft | 250 kts | 156° |
| 2026-05-09 10:44 | 38.18363 | 12.85235 | 3349 ft | 244 kts | 154° |
| 2026-05-09 10:44 | 38.16858 | 12.86074 | 2996 ft | 227 kts | 155° |
| 2026-05-09 10:44 | 38.15437 | 12.86848 | 2683 ft | 213 kts | 155° |
| 2026-05-09 10:45 | 38.14131 | 12.87549 | 2558 ft | 198 kts | 154° |
| 2026-05-09 10:46 | 38.11955 | 12.92436 | 2344 ft | 184 kts | 66° |
| 2026-05-09 10:46 | 38.12466 | 12.93923 | 2311 ft | 184 kts | 65° |
| 2026-05-09 10:46 | 38.12966 | 12.95377 | 2274 ft | 172 kts | 66° |
| 2026-05-09 10:46 | 38.13421 | 12.96704 | 2092 ft | 160 kts | 66° |
| 2026-05-09 10:47 | 38.13831 | 12.97986 | 1868 ft | 154 kts | 68° |
| 2026-05-09 10:47 | 38.14211 | 12.99235 | 1659 ft | 149 kts | 67° |
| 2026-05-09 10:47 | 38.14603 | 13.00443 | 1464 ft | 146 kts | 64° |
| 2026-05-09 10:47 | 38.15002 | 13.01617 | 1298 ft | 143 kts | 65° |
| 2026-05-09 10:48 | 38.15403 | 13.02761 | 1113 ft | 141 kts | 63° |
| 2026-05-09 10:48 | 38.15825 | 13.03872 | 910 ft | 139 kts | 61° |
| 2026-05-09 10:48 | 38.16202 | 13.05005 | 702 ft | 140 kts | 67° |
| 2026-05-09 10:48 | 38.16581 | 13.06124 | 472 ft | 139 kts | 64° |
| 2026-05-09 10:49 | 38.16957 | 13.07235 | 331 ft | 137 kts | 64° |
| 2026-05-09 10:49 | 38.17329 | 13.08354 | 174 ft | 137 kts | 64° |
| 2026-05-09 10:49 | 38.17704 | 13.09451 | 70 ft | 127 kts | 65° |
| 2026-05-09 10:49 | 38.17985 | 13.10298 | 64 ft | 79 kts | 67° |
| 2026-05-09 10:50 | 38.18114 | 13.10680 | 62 ft | 14 kts | 66° |
| 2026-05-09 10:50 | 38.18171 | 13.10692 | 65 ft | 12 kts | 291° |
| 2026-05-09 10:50 | 38.18182 | 13.10580 | 65 ft | 13 kts | 277° |
| 2026-05-09 10:50 | 38.18194 | 13.10463 | 66 ft | 13 kts | 277° |
| 2026-05-09 10:51 | 38.18221 | 13.10414 | 64 ft | 10 kts | 7° |
| 2026-05-09 10:51 | 38.18255 | 13.10489 | 61 ft | 12 kts | 67° |
| 2026-05-09 10:51 | 38.18301 | 13.10623 | 58 ft | 19 kts | 66° |
| 2026-05-09 10:51 | 38.18354 | 13.10783 | 63 ft | 20 kts | 67° |
| 2026-05-09 10:52 | 38.18420 | 13.10938 | 61 ft | 17 kts | 25° |
| 2026-05-09 10:52 | 38.18482 | 13.10832 | 58 ft | 16 kts | 289° |
| 2026-05-09 10:52 | 38.18504 | 13.10718 | 65 ft | 8 kts | 252° |
| 2026-05-09 10:52 | 38.18466 | 13.10717 | 65 ft | 5 kts | 155° |
| 2026-05-09 10:53 | 38.18443 | 13.10730 | 64 ft | 1 kts | 157° |
| 2026-05-09 10:53 | 38.18435 | 13.10735 | 58 ft | 2 kts | 157° |
| 2026-05-09 10:53 | 38.18429 | 13.10738 | 60 ft | 0 kts | 157° |